Klemme/'s Corner

Nearby METAR Reports

 

KSJC - San Jose, California, USA
Distance from station: NE 9mi, 14km
Updated: Wed, Oct-18-2017 3:53pm EDT
Haze, Few clouds
Haze, Few clouds
 Wind from varies
Wind: varies 3 mph , 6 km/h
Temperature: 70°F , 21°C
Dew Point: 52°F , 11°C
Humidity: 53%
Barometer: 30.04 inHg , 1017.3 hPa
Summary: Haze
Clouds: Few Clouds
Visibility: 4 miles , 6 km
Cloud details: Few Clouds 10000 ft
2017/10/18 19:53 KSJC 181953Z VRB03KT 4SM HZ FEW100 21/11 A3004 RMK AO2 SLP173 T02060106 $
KNUQ - Moffett Nas/Mtn, California, USA
Distance from station: N 9mi, 14km
Updated: Wed, Oct-18-2017 3:56pm EDT
Smoke, Clear
Smoke, Clear
 Wind from N
Wind: N 5 mph , 7 km/h
Temperature: 64°F , 18°C
Dew Point: 52°F , 11°C
Humidity: 64%
Barometer: 30.05 inHg , 1017.6 hPa
Summary: Smoke
Clouds: Clear
Visibility: 5 miles , 8 km
2017/10/18 19:56 KNUQ 181956Z 01004KT 5SM FU CLR 18/11 A3005 RMK AO2 SLP179 T01780111
 
KPAO - Palo Alto, California, USA
Distance from station: NNW 14mi, 23km
Updated: Wed, Oct-18-2017 2:47pm EDT
NOT Current
Haze, Partly cloudy
Haze, Partly cloudy
 Wind from NNE
Wind: NNE 7 mph , 11 km/h
Temperature: 59°F , 15°C
Barometer: 30.08 inHg , 1018.6 hPa
Summary: Haze
Clouds: Partly cloudy
Visibility: 3 miles , 5 km
Cloud details: Partly cloudy 600 ft
2017/10/18 18:47 KPAO 181847Z 02006KT 3SM HZ SCT006 15/ A3008
KRHV - San Jose/Reid, California, USA
Distance from station: ENE 12mi, 19km
Updated: Wed, Oct-18-2017 3:47pm EDT
Haze, Few clouds
Haze, Few clouds
 Wind from varies
Wind: varies 5 mph , 7 km/h
Temperature: 72°F , 22°C
Dew Point: 46°F , 8°C
Humidity: 41%
Barometer: 30.08 inHg , 1018.6 hPa
Summary: Haze
Clouds: Few Clouds
Visibility: 7 miles , 11 km
Cloud details: Few Clouds 10000 ft
2017/10/18 19:47 KRHV 181947Z VRB04KT 7SM HZ FEW100 22/08 A3008
 
KOAK - Oakland, California, USA
Distance from station: NNW 31mi, 50km
Updated: Wed, Oct-18-2017 3:53pm EDT
Few Clouds
Few Clouds
 Wind from W
Wind: W 3 mph , 6 km/h
Temperature: 61°F , 16°C
Dew Point: 54°F , 12°C
Humidity: 77%
Barometer: 30.05 inHg , 1017.6 hPa
Clouds: Few Clouds
Visibility: 7 miles , 11 km
Cloud details: Few Clouds 800 ft
Few Clouds 18000 ft
2017/10/18 19:53 KOAK 181953Z 26003KT 7SM FEW008 FEW180 16/12 A3005 RMK AO2 SLP176 T01610117
KSQL - San Carlos Airpo, California, USA
Distance from station: NW 21mi, 34km
Updated: Wed, Oct-18-2017 3:56pm EDT
Smoke, Haze, Few clouds
Smoke, Haze, Few clouds
 Wind from ENE
Wind: ENE 5 mph , 7 km/h
Temperature: 59°F , 15°C
Dew Point: 54°F , 12°C
Humidity: 82%
Barometer: 30.06 inHg , 1017.9 hPa
Summary: Smoke, Haze
Clouds: Few Clouds
Visibility: 5 miles , 8 km
Cloud details: Few Clouds 20000 ft
2017/10/18 19:56 KSQL 181956Z 07004KT 5SM FU HZ FEW200 15/12 A3006
 
KSFO - San Francisco, California, USA
Distance from station: NW 30mi, 49km
Updated: Wed, Oct-18-2017 3:56pm EDT
Few Clouds
Few Clouds
 Wind from N
Wind: N 6 mph , 9 km/h
Temperature: 63°F , 17°C
Dew Point: 52°F , 11°C
Humidity: 68%
Barometer: 30.05 inHg , 1017.6 hPa
Clouds: Few Clouds
Visibility: 9 miles , 14 km
Cloud details: Few Clouds 20000 ft
2017/10/18 19:56 KSFO 181956Z 36005KT 9SM FEW200 17/11 A3005 RMK AO2 SLP176 T01670106
KE16 - San Martin, California, USA
Distance from station: ESE 27mi, 43km
Updated: Wed, Oct-18-2017 3:55pm EDT
Clear
Clear
 Wind from calm
Wind: Calm
Temperature: 73°F , 23°C
Dew Point: 37°F , 3°C
Humidity: 27%
Barometer: 30.05 inHg , 1017.6 hPa
Clouds: Clear
Visibility: 9 miles , 14 km
2017/10/18 19:55 KE16 181955Z AUTO 00000KT 9SM CLR 23/03 A3005 RMK AO2
 
KWVI - Watsonville, California, USA
Distance from station: SSE 27mi, 44km
Updated: Thu, Oct-12-2017 12:53pm EDT
NOT Current
Clear
Clear
 Wind from E
Wind: E 3 mph , 6 km/h
Temperature: 57°F , 14°C
Dew Point: 39°F , 4°C
Humidity: 51%
Barometer: 30.11 inHg , 1019.6 hPa
Clouds: Clear
Visibility: 8 miles , 13 km
2017/10/12 16:53 KWVI 121653Z AUTO 09003KT 8SM CLR 14/04 A3011 RMK AO2 SLP194 T01440039 $
KHAF - Half Moon Bay, California, USA
Distance from station: WNW 31mi, 50km
Updated: Wed, Oct-18-2017 3:55pm EDT
Overcast
Overcast
 Wind from W
Wind: W 7 mph , 11 km/h
Temperature: 55°F , 13°C
Dew Point: 50°F , 10°C
Humidity: 82%
Barometer: 30.06 inHg , 1017.9 hPa
Clouds: Overcast
Visibility: 7 miles , 11 km
Cloud details: Overcast 600 ft
2017/10/18 19:55 KHAF 181955Z AUTO 28006KT 7SM OVC006 13/10 A3006 RMK AO2
 
KHWD - Hayward, California, USA
Distance from station: N 28mi, 44km
Updated: Wed, Oct-18-2017 3:54pm EDT
Haze, Clear
Haze, Clear
 Wind from varies
Wind: varies 3 mph , 6 km/h
Temperature: 63°F , 17°C
Dew Point: 48°F , 9°C
Humidity: 59%
Barometer: 30.05 inHg , 1017.6 hPa
Summary: Haze
Clouds: Clear
Visibility: 5 miles , 8 km
2017/10/18 19:54 KHWD 181954Z VRB03KT 5SM HZ CLR 17/09 A3005 RMK AO2 SLP185 T01720094
KLVK - Livermore, California, USA
Distance from station: NNE 31mi, 51km
Updated: Wed, Oct-18-2017 3:53pm EDT
Smoke, Clear
Smoke, Clear
 Wind from varies
Wind: varies 3 mph , 6 km/h
Temperature: 75°F , 24°C
Dew Point: 34°F , 1°C
Humidity: 22%
Barometer: 30.02 inHg , 1016.6 hPa
Summary: Smoke
Clouds: Clear
Visibility: 9 miles , 14 km
2017/10/18 19:53 KLVK 181953Z VRB03KT 9SM FU CLR 24/01 A3002 RMK AO2 SLP163 T02440006